Terminal Aerodrome Forecast
Issued by NWS Louisville, KY

Home | Current Version | Previous Version | Text Only | Print | Product List | Glossary On
Versions: 1 2 3 4 5 6 7 8 9 10 11 12 13 14 15 16 17
000
FTUS43 KLMK 191700
TAFBWG
TAF
KBWG 191720Z 1918/2018 20005KT P6SM BKN035
     FM192300 20005KT P6SM VCTS SCT035CB BKN100
     FM200800 VRB03KT 5SM BR SCT250
      TEMPO 2009/2013 1SM BR
     FM201400 25005KT P6SM SCT050=

USA.gov is the U.S. government's official web portal to all federal, state and local government web resources and services.